Time;durP1;ratioP1;P1;durP2;ratioP2;P2;SDS_P1;SDS_P2;PMS_P1;PMS_P2;Temp;Humidity;BMP_temperature;BMP_pressure;BME280_temperature;BME280_humidity;BME280_pressure;Samples;Min_cycle;Max_cycle;Signal;HPM_P1;HPM_P2
2022/09/12 00:04:12;;;;;;;;;;;;;;;;;;10462017;28;19954;-57
2022/09/12 00:09:14;;;;;;;;;;;;;;;;;;10461395;28;19933;-57
2022/09/12 00:14:16;;;;;;;;;;;;;;;;;;10462920;28;19978;-57
2022/09/12 00:19:18;;;;;;;;;;;;;;;;;;10462115;28;19986;-57
2022/09/12 00:24:20;;;;;;;;;;;;;;;;;;10461221;28;19925;-57
2022/09/12 00:29:22;;;;;;;;;;;;;;;;;;10461672;28;19924;-57
2022/09/12 00:34:24;;;;;;;;;;;;;;;;;;10462104;28;19929;-57
2022/09/12 00:39:26;;;;;;;;;;;;;;;;;;10461070;28;19924;-57
2022/09/12 00:44:28;;;;;;;;;;;;;;;;;;10460750;28;19986;-57
2022/09/12 00:49:30;;;;;;;;;;;;;;;;;;10460910;28;20330;-57
2022/09/12 00:54:32;;;;;;;;;;;;;;;;;;10460613;28;19928;-57
2022/09/12 00:59:34;;;;;;;;;;;;;;;;;;10460925;28;19974;-57
2022/09/12 01:04:36;;;;;;;;;;;;;;;;;;10458033;28;20372;-57
2022/09/12 01:09:38;;;;;;;;;;;;;;;;;;10460119;28;20296;-57
2022/09/12 01:14:40;;;;;;;;;;;;;;;;;;10458255;28;19951;-57
2022/09/12 01:19:42;;;;;;;;;;;;;;;;;;10460323;28;19925;-57
2022/09/12 01:24:44;;;;;;;;;;;;;;;;;;10459664;28;19983;-57
2022/09/12 01:29:46;;;;;;;;;;;;;;;;;;10459848;28;19932;-57
2022/09/12 01:34:49;;;;;;;;;;;;;;;;;;10459078;28;20338;-57
2022/09/12 01:39:51;;;;;;;;;;;;;;;;;;10458500;28;19924;-57
2022/09/12 01:44:53;;;;;;;;;;;;;;;;;;10457783;28;19925;-57
2022/09/12 01:49:56;;;;;;;;;;;;;;;;;;10459180;28;19951;-57
2022/09/12 01:54:58;;;;;;;;;;;;;;;;;;10456650;28;19928;-57
2022/09/12 02:00:00;;;;;;;;;;;;;;;;;;10457606;28;19979;-57
2022/09/12 02:05:02;;;;;;;;;;;;;;;;;;10457087;28;20338;-57
2022/09/12 02:10:04;;;;;;;;;;;;;;;;;;10458440;28;19978;-57
2022/09/12 02:15:06;;;;;;;;;;;;;;;;;;10457656;28;20372;-57
2022/09/12 02:20:08;;;;;;;;;;;;;;;;;;10457203;28;19929;-57
2022/09/12 02:25:18;;;;;;;;;;;;;;;;;;10456915;28;19932;-57
2022/09/12 02:30:20;;;;;;;;;;;;;;;;;;10457177;28;20347;-57
2022/09/12 02:35:22;;;;;;;;;;;;;;;;;;10457665;28;19925;-57
2022/09/12 02:40:25;;;;;;;;;;;;;;;;;;10455951;28;19933;-57
2022/09/12 02:45:28;;;;;;;;;;;;;;;;;;10457341;28;19925;-57
2022/09/12 02:50:30;;;;;;;;;;;;;;;;;;10457316;28;20366;-57
2022/09/12 02:55:32;;;;;;;;;;;;;;;;;;10456417;28;19979;-57
2022/09/12 03:00:34;;;;;;;;;;;;;;;;;;10455212;28;19999;-57
2022/09/12 03:05:36;;;;;;;;;;;;;;;;;;10454762;28;19929;-58
2022/09/12 03:10:38;;;;;;;;;;;;;;;;;;10456226;28;19924;-57
2022/09/12 03:15:40;;;;;;;;;;;;;;;;;;10456829;28;19924;-58
2022/09/12 03:20:43;;;;;;;;;;;;;;;;;;10455230;28;19971;-57
2022/09/12 03:25:45;;;;;;;;;;;;;;;;;;10456187;28;19951;-57
2022/09/12 03:30:47;;;;;;;;;;;;;;;;;;10455727;28;19932;-58
2022/09/12 03:35:49;;;;;;;;;;;;;;;;;;10456486;28;20007;-57
2022/09/12 03:40:51;;;;;;;;;;;;;;;;;;10463021;28;20322;-57
2022/09/12 03:45:55;;;;;;;;;;;;;;;;;;10463065;28;19932;-57
2022/09/12 03:50:58;;;;;;;;;;;;;;;;;;10463885;28;19928;-57
2022/09/12 03:56:00;;;;;;;;;;;;;;;;;;10462838;28;19925;-56
2022/09/12 04:01:02;;;;;;;;;;;;;;;;;;10421398;28;20372;-56
2022/09/12 04:06:04;;;;;;;;;;;;;;;;;;10421319;28;19925;-56
2022/09/12 04:11:06;;;;;;;;;;;;;;;;;;10424202;28;19991;-56
2022/09/12 04:16:08;;;;;;;;;;;;;;;;;;10462861;28;19925;-56
2022/09/12 04:21:10;;;;;;;;;;;;;;;;;;10461907;28;19925;-56
2022/09/12 04:26:12;;;;;;;;;;;;;;;;;;10462426;28;19925;-56
2022/09/12 04:31:16;;;;;;;;;;;;;;;;;;10462357;28;20128;-56
2022/09/12 04:36:18;;;;;;;;;;;;;;;;;;10460380;28;20372;-56
2022/09/12 04:41:20;;;;;;;;;;;;;;;;;;10456822;28;19979;-56
2022/09/12 04:46:22;;;;;;;;;;;;;;;;;;10420426;28;19951;-56
2022/09/12 04:51:27;;;;;;;;;;;;;;;;;;10419342;28;20323;-56
2022/09/12 04:56:29;;;;;;;;;;;;;;;;;;10429313;28;19925;-56
2022/09/12 05:01:31;;;;;;;;;;;;;;;;;;10460361;28;19982;-56
2022/09/12 05:06:33;;;;;;;;;;;;;;;;;;10460879;28;19931;-57
2022/09/12 05:11:35;;;;;;;;;;;;;;;;;;10459240;28;20387;-56
2022/09/12 05:17:00;;;;;;;;;;;;;;;;;;10459780;28;19975;-56
2022/09/12 05:22:03;;;;;;;;;;;;;;;;;;10459707;28;19991;-56
2022/09/12 05:27:06;;;;;;;;;;;;;;;;;;10458899;28;19975;-57
2022/09/12 05:32:08;;;;;;;;;;;;;;;;;;10458275;28;20338;-56
2022/09/12 05:37:11;;;;;;;;;;;;;;;;;;10458869;28;19951;-57
2022/09/12 05:42:13;;;;;;;;;;;;;;;;;;10459531;28;19954;-56
2022/09/12 05:47:16;;;;;;;;;;;;;;;;;;10457810;28;19955;-57
2022/09/12 05:52:19;;;;;;;;;;;;;;;;;;10458223;28;19997;-56
2022/09/12 05:57:21;;;;;;;;;;;;;;;;;;10458680;28;19929;-57
2022/09/12 06:02:23;;;;;;;;;;;;;;;;;;10457583;28;19978;-57
2022/09/12 06:07:25;;;;;;;;;;;;;;;;;;10456471;28;20107;-57
2022/09/12 06:12:28;;;;;;;;;;;;;;;;;;10457666;28;19954;-57
2022/09/12 06:17:31;;;;;;;;;;;;;;;;;;10456254;28;19971;-58
2022/09/12 06:22:33;;;;;;;;;;;;;;;;;;10416860;28;19925;-58
2022/09/12 06:27:35;;;;;;;;;;;;;;;;;;10416617;28;19957;-57
2022/09/12 06:32:37;;;;;;;;;;;;;;;;;;10421428;28;19925;-57
2022/09/12 06:37:40;;;;;;;;;;;;;;;;;;10457038;28;20410;-57
2022/09/12 06:42:43;;;;;;;;;;;;;;;;;;10457549;28;19978;-57
2022/09/12 06:47:45;;;;;;;;;;;;;;;;;;10454923;28;19979;-60
2022/09/12 06:52:47;;;;;;;;;;;;;;;;;;10456674;28;20418;-60
2022/09/12 06:57:49;;;;;;;;;;;;;;;;;;10454603;28;19971;-60
2022/09/12 07:02:51;;;;;;;;;;;;;;;;;;10454183;28;19933;-60
2022/09/12 07:07:53;;;;;;;;;;;;;;;;;;10456358;28;19958;-60
2022/09/12 07:12:55;;;;;;;;;;;;;;;;;;10461056;28;20437;-61
2022/09/12 07:17:57;;;;;;;;;;;;;;;;;;10463901;28;20324;-60
2022/09/12 07:22:59;;;;;;;;;;;;;;;;;;10459912;28;19925;-60
2022/09/12 07:28:01;;;;;;;;;;;;;;;;;;10458522;28;19978;-60
2022/09/12 07:33:03;;;;;;;;;;;;;;;;;;10463505;28;20426;-60
2022/09/12 07:38:05;;;;;;;;;;;;;;;;;;10464354;28;19928;-60
2022/09/12 07:43:07;;;;;;;;;;;;;;;;;;10464724;28;19929;-60
2022/09/12 07:48:09;;;;;;;;;;;;;;;;;;10463819;28;19947;-61
2022/09/12 07:53:11;;;;;;;;;;;;;;;;;;10463239;28;19925;-60
2022/09/12 07:58:14;;;;;;;;;;;;;;;;;;10463528;28;19983;-60
2022/09/12 08:03:16;;;;;;;;;;;;;;;;;;10462706;28;19929;-61
2022/09/12 08:08:18;;;;;;;;;;;;;;;;;;10463204;28;19924;-61
2022/09/12 08:13:20;;;;;;;;;;;;;;;;;;10462392;28;19924;-61
2022/09/12 08:18:22;;;;;;;;;;;;;;;;;;10462747;28;19925;-61
2022/09/12 08:23:24;;;;;;;;;;;;;;;;;;10461981;28;19925;-61
2022/09/12 08:28:26;;;;;;;;;;;;;;;;;;10462109;28;19929;-61
2022/09/12 08:33:32;;;;;;;;;;;;;;;;;;10461546;28;19925;-61
2022/09/12 08:38:34;;;;;;;;;;;;;;;;;;10461324;28;20411;-61
2022/09/12 08:43:36;;;;;;;;;;;;;;;;;;10456559;28;19959;-61
2022/09/12 08:48:38;;;;;;;;;;;;;;;;;;10461583;28;19924;-61
2022/09/12 08:53:41;;;;;;;;;;;;;;;;;;10460863;28;20343;-62
2022/09/12 08:58:43;;;;;;;;;;;;;;;;;;10461268;28;19931;-61
2022/09/12 09:03:45;;;;;;;;;;;;;;;;;;10456984;28;19925;-62
2022/09/12 09:08:47;;;;;;;;;;;;;;;;;;10459860;28;19925;-61
2022/09/12 09:19:10;;;;;;;;;;;;;;;;;;10459015;28;19925;-61
2022/09/12 09:24:12;;;;;;;;;;;;;;;;;;10459687;28;20384;-61
2022/09/12 09:29:14;;;;;;;;;;;;;;;;;;10460055;28;19929;-61
2022/09/12 09:34:16;;;;;;;;;;;;;;;;;;10456034;28;19933;-62
2022/09/12 09:39:18;;;;;;;;;;;;;;;;;;10497805;28;19928;-61
2022/09/12 09:44:20;;;;;;;;;;;;;;;;;;10488773;28;20276;-61
2022/09/12 09:49:22;;;;;;;;;;;;;;;;;;10457370;28;19924;-62
2022/09/12 09:54:24;;;;;;;;;;;;;;;;;;10448569;28;19986;-62
2022/09/12 09:59:26;;;;;;;;;;;;;;;;;;10462544;28;19929;-62
2022/09/12 10:04:28;;;;;;;;;;;;;;;;;;10466511;28;19924;-61
2022/09/12 10:09:33;;;;;;;;;;;;;;;;;;10458429;28;19986;-62
2022/09/12 10:14:35;;;;;;;;;;;;;;;;;;10470842;22;19931;-65
2022/09/12 10:19:38;;;;;;;;;;;;;;;;;;10413983;28;19929;-66
2022/09/12 10:24:40;;;;;;;;;;;;;;;;;;10416978;28;19929;-66
2022/09/12 10:29:44;;;;;;;;;;;;;;;;;;10416622;28;19925;-66
2022/09/12 10:34:46;;;;;;;;;;;;;;;;;;10413164;28;19925;-66
2022/09/12 10:39:48;;;;;;;;;;;;;;;;;;10415789;28;19929;-66
2022/09/12 10:44:50;;;;;;;;;;;;;;;;;;10416038;28;19925;-65
2022/09/12 10:49:53;;;;;;;;;;;;;;;;;;10413148;28;20277;-66
2022/09/12 10:54:55;;;;;;;;;;;;;;;;;;10415450;28;19929;-65
2022/09/12 10:59:57;;;;;;;;;;;;;;;;;;10416419;28;20043;-65
2022/09/12 11:04:59;;;;;;;;;;;;;;;;;;10408299;28;19925;-66
2022/09/12 11:10:01;;;;;;;;;;;;;;;;;;10406262;28;20291;-66
2022/09/12 11:15:03;;;;;;;;;;;;;;;;;;10414115;28;19991;-66
2022/09/12 11:20:05;;;;;;;;;;;;;;;;;;10414255;28;19929;-66
2022/09/12 11:25:07;;;;;;;;;;;;;;;;;;10415087;28;19929;-66
2022/09/12 11:30:09;;;;;;;;;;;;;;;;;;10415356;28;19925;-65
2022/09/12 11:35:11;;;;;;;;;;;;;;;;;;10412920;28;20398;-65
2022/09/12 11:40:19;;;;;;;;;;;;;;;;;;10413385;28;19940;-66
2022/09/12 11:45:21;;;;;;;;;;;;;;;;;;10415106;28;19925;-65
2022/09/12 11:50:24;;;;;;;;;;;;;;;;;;10415378;28;19929;-65
2022/09/12 11:55:27;;;;;;;;;;;;;;;;;;10413116;28;19925;-65
2022/09/12 12:00:29;;;;;;;;;;;;;;;;;;10420205;28;19925;-65
2022/09/12 12:05:31;;;;;;;;;;;;;;;;;;10421401;28;20323;-66
2022/09/12 12:10:33;;;;;;;;;;;;;;;;;;10418724;28;19929;-65
2022/09/12 12:15:35;;;;;;;;;;;;;;;;;;10437081;28;19979;-66
2022/09/12 12:20:37;;;;;;;;;;;;;;;;;;10421286;28;19925;-66
2022/09/12 12:25:39;;;;;;;;;;;;;;;;;;10421306;28;19975;-66
2022/09/12 12:30:42;;;;;;;;;;;;;;;;;;10419713;28;20295;-65
2022/09/12 12:35:45;;;;;;;;;;;;;;;;;;10420406;28;19929;-65
2022/09/12 12:40:49;;;;;;;;;;;;;;;;;;10420249;28;19926;-65
2022/09/12 12:45:51;;;;;;;;;;;;;;;;;;10419927;28;20376;-65
2022/09/12 12:50:53;;;;;;;;;;;;;;;;;;10420448;28;19932;-65
2022/09/12 12:55:55;;;;;;;;;;;;;;;;;;10417826;28;20285;-64
2022/09/12 13:00:57;;;;;;;;;;;;;;;;;;10435915;28;19924;-67
2022/09/12 13:05:59;;;;;;;;;;;;;;;;;;10419763;28;19929;-67
2022/09/12 13:11:01;;;;;;;;;;;;;;;;;;10418777;28;19980;-67
2022/09/12 13:16:03;;;;;;;;;;;;;;;;;;10417233;28;19972;-67
2022/09/12 13:21:06;;;;;;;;;;;;;;;;;;10419262;28;19971;-67
2022/09/12 13:26:08;;;;;;;;;;;;;;;;;;10417622;28;19925;-67
2022/09/12 13:31:10;;;;;;;;;;;;;;;;;;10418819;28;19925;-67
2022/09/12 13:36:12;;;;;;;;;;;;;;;;;;10418690;28;19931;-68
2022/09/12 13:41:14;;;;;;;;;;;;;;;;;;10416297;28;19956;-68
2022/09/12 13:46:16;;;;;;;;;;;;;;;;;;10416358;28;19929;-67
2022/09/12 13:51:18;;;;;;;;;;;;;;;;;;10418747;28;19929;-67
2022/09/12 13:56:20;;;;;;;;;;;;;;;;;;10416160;28;19925;-67
2022/09/12 14:01:22;;;;;;;;;;;;;;;;;;10417734;28;19929;-67
2022/09/12 14:06:26;;;;;;;;;;;;;;;;;;10416187;28;19925;-67
2022/09/12 14:11:28;;;;;;;;;;;;;;;;;;10417345;28;19925;-67
2022/09/12 14:16:31;;;;;;;;;;;;;;;;;;10416684;28;19928;-67
2022/09/12 14:21:33;;;;;;;;;;;;;;;;;;10413590;28;20338;-67
2022/09/12 14:26:35;;;;;;;;;;;;;;;;;;10414525;28;20265;-67
2022/09/12 14:31:38;;;;;;;;;;;;;;;;;;10416049;28;19925;-67
2022/09/12 14:36:40;;;;;;;;;;;;;;;;;;10416037;28;19929;-68
2022/09/12 14:41:42;;;;;;;;;;;;;;;;;;10415767;28;19925;-67
2022/09/12 14:46:44;;;;;;;;;;;;;;;;;;10415521;28;19925;-67
2022/09/12 14:51:46;;;;;;;;;;;;;;;;;;10414418;28;19932;-67
2022/09/12 14:56:52;;;;;;;;;;;;;;;;;;10415543;28;19925;-67
2022/09/12 15:01:54;;;;;;;;;;;;;;;;;;10415982;28;19979;-66
2022/09/12 15:06:56;;;;;;;;;;;;;;;;;;10412738;28;19979;-67
2022/09/12 15:11:58;;;;;;;;;;;;;;;;;;10415884;28;19975;-67
2022/09/12 15:17:00;;;;;;;;;;;;;;;;;;10415251;28;19976;-67
2022/09/12 15:22:02;;;;;;;;;;;;;;;;;;10413416;28;20331;-65
2022/09/12 15:27:04;;;;;;;;;;;;;;;;;;10414242;28;19979;-65
2022/09/12 15:32:06;;;;;;;;;;;;;;;;;;10415096;28;20292;-67
2022/09/12 15:37:09;;;;;;;;;;;;;;;;;;10420480;28;20426;-67
2022/09/12 15:42:11;;;;;;;;;;;;;;;;;;10423299;28;19979;-67
2022/09/12 15:47:13;;;;;;;;;;;;;;;;;;10420778;28;19925;-67
2022/09/12 15:52:15;;;;;;;;;;;;;;;;;;10421241;28;19951;-67
2022/09/12 15:57:17;;;;;;;;;;;;;;;;;;10422565;28;19925;-67
2022/09/12 16:02:19;;;;;;;;;;;;;;;;;;10421335;28;20330;-67
2022/09/12 16:07:21;;;;;;;;;;;;;;;;;;10421827;28;20390;-67
2022/09/12 16:12:23;;;;;;;;;;;;;;;;;;10421288;28;19925;-67
2022/09/12 16:17:25;;;;;;;;;;;;;;;;;;10421040;28;19925;-67
2022/09/12 16:22:27;;;;;;;;;;;;;;;;;;10420114;28;19929;-67
2022/09/12 16:27:29;;;;;;;;;;;;;;;;;;10421374;28;19925;-67
2022/09/12 16:32:31;;;;;;;;;;;;;;;;;;10420481;28;20364;-67
2022/09/12 16:37:33;;;;;;;;;;;;;;;;;;10420016;28;19924;-67
2022/09/12 16:42:36;;;;;;;;;;;;;;;;;;10421393;28;19929;-67
2022/09/12 16:47:41;;;;;;;;;;;;;;;;;;10420262;28;19929;-67
2022/09/12 16:52:43;;;;;;;;;;;;;;;;;;10419742;28;19925;-67
2022/09/12 16:57:48;;;;;;;;;;;;;;;;;;10418140;28;19925;-67
2022/09/12 17:02:50;;;;;;;;;;;;;;;;;;10414413;28;20296;-67
2022/09/12 17:07:52;;;;;;;;;;;;;;;;;;10416499;28;20403;-67
2022/09/12 17:12:54;;;;;;;;;;;;;;;;;;10418938;28;20302;-67
2022/09/12 17:17:56;;;;;;;;;;;;;;;;;;10404303;28;19968;-67
2022/09/12 17:22:59;;;;;;;;;;;;;;;;;;10412284;28;19925;-67
2022/09/12 17:28:03;;;;;;;;;;;;;;;;;;10418913;28;19978;-67
2022/09/12 17:33:05;;;;;;;;;;;;;;;;;;10415968;28;20194;-66
2022/09/12 17:38:07;;;;;;;;;;;;;;;;;;10416981;28;19925;-67
2022/09/12 17:43:10;;;;;;;;;;;;;;;;;;10416255;28;19978;-65
2022/09/12 17:48:12;;;;;;;;;;;;;;;;;;10417447;28;19929;-65
2022/09/12 17:53:14;;;;;;;;;;;;;;;;;;10416793;28;19929;-65
2022/09/12 17:58:16;;;;;;;;;;;;;;;;;;10416299;28;20441;-65
2022/09/12 18:03:21;;;;;;;;;;;;;;;;;;10414786;28;20445;-65
2022/09/12 18:08:23;;;;;;;;;;;;;;;;;;10416436;28;20347;-65
2022/09/12 18:13:25;;;;;;;;;;;;;;;;;;10416651;28;19932;-65
2022/09/12 18:18:27;;;;;;;;;;;;;;;;;;10416343;28;19975;-65
2022/09/12 18:23:30;;;;;;;;;;;;;;;;;;10414339;28;19933;-65
2022/09/12 18:28:32;;;;;;;;;;;;;;;;;;10416044;28;19971;-65
2022/09/12 18:33:34;;;;;;;;;;;;;;;;;;10412224;28;19983;-65
2022/09/12 18:38:36;;;;;;;;;;;;;;;;;;10405563;28;19959;-64
2022/09/12 18:43:39;;;;;;;;;;;;;;;;;;10415351;28;19929;-65
2022/09/12 18:48:41;;;;;;;;;;;;;;;;;;10412010;28;19948;-64
2022/09/12 18:53:43;;;;;;;;;;;;;;;;;;10414469;28;19925;-65
2022/09/12 18:58:46;;;;;;;;;;;;;;;;;;10415373;28;20381;-65
2022/09/12 19:03:48;;;;;;;;;;;;;;;;;;10415352;28;19959;-64
2022/09/12 19:08:50;;;;;;;;;;;;;;;;;;10418020;28;19956;-64
2022/09/12 19:13:52;;;;;;;;;;;;;;;;;;10423603;28;20327;-64
2022/09/12 19:18:54;;;;;;;;;;;;;;;;;;10421309;28;19925;-64
2022/09/12 19:23:56;;;;;;;;;;;;;;;;;;10423272;28;20430;-64
2022/09/12 19:29:01;;;;;;;;;;;;;;;;;;10423000;28;20339;-64
2022/09/12 19:34:03;;;;;;;;;;;;;;;;;;10419403;28;20484;-64
2022/09/12 19:39:05;;;;;;;;;;;;;;;;;;10427789;28;19994;-64
2022/09/12 19:44:07;;;;;;;;;;;;;;;;;;10421688;28;19972;-64
2022/09/12 19:49:10;;;;;;;;;;;;;;;;;;10422707;28;19925;-64
2022/09/12 19:54:12;;;;;;;;;;;;;;;;;;10420070;28;20336;-64
2022/09/12 19:59:14;;;;;;;;;;;;;;;;;;10421899;28;20347;-64
2022/09/12 20:04:16;;;;;;;;;;;;;;;;;;10421624;28;19929;-64
2022/09/12 20:09:18;;;;;;;;;;;;;;;;;;10419399;28;20388;-64
2022/09/12 20:14:21;;;;;;;;;;;;;;;;;;10421289;28;19925;-64
2022/09/12 20:19:23;;;;;;;;;;;;;;;;;;10420125;28;19975;-64
2022/09/12 20:24:25;;;;;;;;;;;;;;;;;;10418662;28;19995;-64
2022/09/12 20:29:27;;;;;;;;;;;;;;;;;;10421287;28;19933;-64
2022/09/12 20:34:29;;;;;;;;;;;;;;;;;;10420554;28;19925;-64
2022/09/12 20:39:31;;;;;;;;;;;;;;;;;;10420078;28;19928;-64
2022/09/12 20:44:33;;;;;;;;;;;;;;;;;;10420823;28;19925;-64
2022/09/12 20:49:35;;;;;;;;;;;;;;;;;;10417967;28;19925;-64
2022/09/12 20:54:37;;;;;;;;;;;;;;;;;;10426059;28;19929;-64
2022/09/12 20:59:41;;;;;;;;;;;;;;;;;;10419483;28;20415;-64
2022/09/12 21:04:43;;;;;;;;;;;;;;;;;;10420172;28;19929;-64
2022/09/12 21:09:45;;;;;;;;;;;;;;;;;;10417913;28;20285;-64
2022/09/12 21:14:47;;;;;;;;;;;;;;;;;;10418013;28;19983;-64
2022/09/12 21:19:49;;;;;;;;;;;;;;;;;;10416179;28;19925;-64
2022/09/12 21:24:51;;;;;;;;;;;;;;;;;;10416574;28;19933;-64
2022/09/12 21:29:54;;;;;;;;;;;;;;;;;;10418870;28;19944;-64
2022/09/12 21:34:56;;;;;;;;;;;;;;;;;;10418260;28;19929;-64
2022/09/12 21:39:58;;;;;;;;;;;;;;;;;;10417706;28;19951;-64
2022/09/12 21:45:00;;;;;;;;;;;;;;;;;;10415678;28;20375;-64
2022/09/12 21:50:02;;;;;;;;;;;;;;;;;;10418156;28;19951;-64
2022/09/12 21:55:04;;;;;;;;;;;;;;;;;;10417991;28;19925;-64
2022/09/12 22:00:06;;;;;;;;;;;;;;;;;;10416069;28;20343;-64
2022/09/12 22:05:09;;;;;;;;;;;;;;;;;;10417656;28;19929;-64
2022/09/12 22:10:11;;;;;;;;;;;;;;;;;;10416600;28;19925;-64
2022/09/12 22:15:13;;;;;;;;;;;;;;;;;;10415209;28;20364;-63
2022/09/12 22:20:35;;;;;;;;;;;;;;;;;;10417057;28;20007;-64
2022/09/12 22:25:37;;;;;;;;;;;;;;;;;;10416352;28;19929;-64
2022/09/12 22:30:41;;;;;;;;;;;;;;;;;;10428846;22;19925;-63
2022/09/12 22:35:43;;;;;;;;;;;;;;;;;;10416111;28;19994;-61
2022/09/12 22:40:45;;;;;;;;;;;;;;;;;;10416263;28;19971;-60
2022/09/12 22:45:47;;;;;;;;;;;;;;;;;;10414537;28;20387;-60
2022/09/12 22:50:49;;;;;;;;;;;;;;;;;;10415585;28;20422;-61
2022/09/12 22:55:51;;;;;;;;;;;;;;;;;;10415492;28;19929;-60
2022/09/12 23:00:53;;;;;;;;;;;;;;;;;;10415429;28;19925;-60
2022/09/12 23:05:55;;;;;;;;;;;;;;;;;;10416018;28;19933;-61
2022/09/12 23:10:57;;;;;;;;;;;;;;;;;;10415184;28;19975;-61
2022/09/12 23:15:59;;;;;;;;;;;;;;;;;;10414926;28;20338;-62
2022/09/12 23:21:02;;;;;;;;;;;;;;;;;;10412890;28;20294;-61
2022/09/12 23:26:04;;;;;;;;;;;;;;;;;;10415608;28;19972;-62
2022/09/12 23:31:07;;;;;;;;;;;;;;;;;;10413616;28;19929;-61
2022/09/12 23:36:15;;;;;;;;;;;;;;;;;;10414471;28;20016;-62
2022/09/12 23:41:17;;;;;;;;;;;;;;;;;;10415307;28;19925;-61
2022/09/12 23:46:19;;;;;;;;;;;;;;;;;;10414564;28;19995;-62
2022/09/12 23:51:21;;;;;;;;;;;;;;;;;;10414087;28;20507;-61
2022/09/12 23:56:24;;;;;;;;;;;;;;;;;;10420930;28;19980;-62
